Time,TemperatureF,DewpointF,PressureIn,WindDirection,WindDirectionDegrees,WindSpeedMPH,WindSpeedGustMPH,Humidity,HourlyPrecipIn,Conditions,Clouds,dailyrainin,SolarRadiationWatts/m^2,SoftwareType,DateUTC
2013-04-21 00:22:00,50.0,41.0,30.03,WNW,291,0.0,-999.0,73,0.00,,,-99.99,-1.800000,,2013-04-21 07:22:00,
2013-04-21 00:32:00,50.0,41.0,30.03,WNW,291,0.0,-999.0,73,0.00,,,-99.99,-1.800000,,2013-04-21 07:32:00,
2013-04-21 01:00:00,52.0,42.0,30.04,North,349,3.0,-999.0,68,0.00,,,-99.99,-1.100000,,2013-04-21 08:00:00,
2013-04-21 01:22:00,52.0,42.0,30.04,North,349,3.0,-999.0,68,0.00,,,-99.99,-1.100000,,2013-04-21 08:22:00,
2013-04-21 01:32:00,52.0,42.0,30.04,North,349,3.0,-999.0,68,0.00,,,-99.99,-1.100000,,2013-04-21 08:32:00,
2013-04-21 01:42:00,52.0,42.0,30.04,North,349,3.0,-999.0,68,0.00,,,-99.99,-1.100000,,2013-04-21 08:42:00,
2013-04-21 01:52:00,52.0,42.0,30.04,North,349,3.0,-999.0,68,0.00,,,-99.99,-1.100000,,2013-04-21 08:52:00,
2013-04-21 02:00:00,53.0,42.0,30.03,WNW,286,1.0,-999.0,65,0.00,,,-99.99,-1.800000,,2013-04-21 09:00:00,
2013-04-21 02:21:00,53.0,42.0,30.03,WNW,286,1.0,-999.0,65,0.00,,,-99.99,-1.800000,,2013-04-21 09:21:00,
2013-04-21 02:33:00,53.0,42.0,30.03,WNW,286,1.0,-999.0,65,0.00,,,-99.99,-1.800000,,2013-04-21 09:33:00,
2013-04-21 02:43:00,53.0,42.0,30.03,WNW,286,1.0,-999.0,65,0.00,,,-99.99,-1.800000,,2013-04-21 09:43:00,
2013-04-21 02:53:00,53.0,42.0,30.03,WNW,286,1.0,-999.0,65,0.00,,,-99.99,-1.800000,,2013-04-21 09:53:00,
2013-04-21 03:00:00,52.0,41.0,30.02,North,11,4.0,-999.0,65,0.00,,,-99.99,-2.400000,,2013-04-21 10:00:00,
2013-04-21 03:22:00,52.0,41.0,30.02,North,11,4.0,-999.0,65,0.00,,,-99.99,-2.400000,,2013-04-21 10:22:00,
2013-04-21 03:33:00,52.0,41.0,30.02,North,11,4.0,-999.0,65,0.00,,,-99.99,-2.400000,,2013-04-21 10:33:00,
2013-04-21 03:42:00,52.0,41.0,30.02,North,11,4.0,-999.0,65,0.00,,,-99.99,-2.400000,,2013-04-21 10:42:00,
2013-04-21 03:52:00,52.0,41.0,30.02,North,11,4.0,-999.0,65,0.00,,,-99.99,-2.400000,,2013-04-21 10:52:00,
2013-04-21 04:00:00,51.0,40.0,30.01,NNE,33,2.0,-999.0,65,0.00,,,-99.99,-2.500000,,2013-04-21 11:00:00,
2013-04-21 04:22:00,51.0,40.0,30.01,NNE,33,2.0,-999.0,65,0.00,,,-99.99,-2.500000,,2013-04-21 11:22:00,
2013-04-21 04:34:00,51.0,40.0,30.01,NNE,33,2.0,-999.0,65,0.00,,,-99.99,-2.500000,,2013-04-21 11:34:00,
2013-04-21 04:42:00,51.0,40.0,30.01,NNE,33,2.0,-999.0,65,0.00,,,-99.99,-2.500000,,2013-04-21 11:42:00,
2013-04-21 04:52:00,51.0,40.0,30.01,NNE,33,2.0,-999.0,65,0.00,,,-99.99,-2.500000,,2013-04-21 11:52:00,
2013-04-21 05:00:00,51.0,41.0,30.01,North,350,3.0,-999.0,66,0.00,,,-99.99,-2.000000,,2013-04-21 12:00:00,
2013-04-21 05:22:00,51.0,41.0,30.01,North,350,3.0,-999.0,66,0.00,,,-99.99,-2.000000,,2013-04-21 12:22:00,
2013-04-21 05:32:00,51.0,41.0,30.01,North,350,3.0,-999.0,66,0.00,,,-99.99,-2.000000,,2013-04-21 12:32:00,
2013-04-21 05:42:00,51.0,41.0,30.01,North,350,3.0,-999.0,66,0.00,,,-99.99,-2.000000,,2013-04-21 12:42:00,
2013-04-21 05:52:00,51.0,41.0,30.01,North,350,3.0,-999.0,66,0.00,,,-99.99,-2.000000,,2013-04-21 12:52:00,
2013-04-21 06:00:00,50.0,40.0,30.01,NNW,342,2.0,-999.0,68,0.00,,,-99.99,-2.400000,,2013-04-21 13:00:00,
2013-04-21 06:22:00,50.0,40.0,30.01,NNW,342,2.0,-999.0,68,0.00,,,-99.99,-2.400000,,2013-04-21 13:22:00,
2013-04-21 06:32:00,50.0,40.0,30.01,NNW,342,2.0,-999.0,68,0.00,,,-99.99,-2.400000,,2013-04-21 13:32:00,
2013-04-21 06:42:00,50.0,40.0,30.01,NNW,342,2.0,-999.0,68,0.00,,,-99.99,-2.400000,,2013-04-21 13:42:00,
2013-04-21 06:52:00,50.0,40.0,30.01,NNW,342,2.0,-999.0,68,0.00,,,-99.99,-2.400000,,2013-04-21 13:52:00,
2013-04-21 07:00:00,50.0,40.0,30.03,WNW,291,2.0,-999.0,69,0.00,,,-99.99,7.900000,,2013-04-21 14:00:00,
2013-04-21 07:22:00,50.0,40.0,30.03,WNW,291,2.0,-999.0,69,0.00,,,-99.99,7.900000,,2013-04-21 14:22:00,
2013-04-21 07:32:00,50.0,40.0,30.03,WNW,291,2.0,-999.0,69,0.00,,,-99.99,7.900000,,2013-04-21 14:32:00,
2013-04-21 07:42:00,50.0,40.0,30.03,WNW,291,2.0,-999.0,69,0.00,,,-99.99,7.900000,,2013-04-21 14:42:00,
2013-04-21 07:52:00,50.0,40.0,30.03,WNW,291,2.0,-999.0,69,0.00,,,-99.99,7.900000,,2013-04-21 14:52:00,
2013-04-21 08:00:00,56.0,40.0,30.05,NNW,328,1.0,-999.0,56,0.00,,,-99.99,95.000000,,2013-04-21 15:00:00,
2013-04-21 08:22:00,56.0,40.0,30.05,NNW,328,1.0,-999.0,56,0.00,,,-99.99,95.000000,,2013-04-21 15:22:00,
2013-04-21 08:33:00,56.0,40.0,30.05,NNW,328,1.0,-999.0,56,0.00,,,-99.99,95.000000,,2013-04-21 15:33:00,
2013-04-21 08:43:00,56.0,40.0,30.05,NNW,328,1.0,-999.0,56,0.00,,,-99.99,95.000000,,2013-04-21 15:43:00,
2013-04-21 08:53:00,56.0,40.0,30.05,NNW,328,1.0,-999.0,56,0.00,,,-99.99,95.000000,,2013-04-21 15:53:00,
2013-04-21 09:00:00,62.0,42.0,30.06,NNE,14,4.0,-999.0,47,0.00,,,-99.99,381.000000,,2013-04-21 16:00:00,
2013-04-21 09:23:00,62.0,42.0,30.06,NNE,14,4.0,-999.0,47,0.00,,,-99.99,381.000000,,2013-04-21 16:23:00,
2013-04-21 09:33:00,62.0,42.0,30.06,NNE,14,4.0,-999.0,47,0.00,,,-99.99,381.000000,,2013-04-21 16:33:00,
2013-04-21 09:42:00,62.0,42.0,30.06,NNE,14,4.0,-999.0,47,0.00,,,-99.99,381.000000,,2013-04-21 16:42:00,
2013-04-21 09:52:00,62.0,42.0,30.06,NNE,14,4.0,-999.0,47,0.00,,,-99.99,381.000000,,2013-04-21 16:52:00,
2013-04-21 10:00:00,72.0,44.0,30.06,SE,129,1.0,-999.0,37,0.00,,,-99.99,577.700012,,2013-04-21 17:00:00,
2013-04-21 10:23:00,72.0,44.0,30.06,SE,129,1.0,-999.0,37,0.00,,,-99.99,577.700012,,2013-04-21 17:23:00,
2013-04-21 10:32:00,72.0,44.0,30.06,SE,129,1.0,-999.0,37,0.00,,,-99.99,577.700012,,2013-04-21 17:32:00,
2013-04-21 10:42:00,72.0,44.0,30.06,SE,129,1.0,-999.0,37,0.00,,,-99.99,577.700012,,2013-04-21 17:42:00,
2013-04-21 10:52:00,72.0,44.0,30.06,SE,129,1.0,-999.0,37,0.00,,,-99.99,577.700012,,2013-04-21 17:52:00,
2013-04-21 11:00:00,74.0,38.0,30.06,NNE,17,2.0,-999.0,26,0.00,,,-99.99,730.299988,,2013-04-21 18:00:00,
2013-04-21 11:22:00,74.0,38.0,30.06,NNE,17,2.0,-999.0,26,0.00,,,-99.99,730.299988,,2013-04-21 18:22:00,
2013-04-21 11:33:00,74.0,38.0,30.06,NNE,17,2.0,-999.0,26,0.00,,,-99.99,730.299988,,2013-04-21 18:33:00,
2013-04-21 11:42:00,74.0,38.0,30.06,NNE,17,2.0,-999.0,26,0.00,,,-99.99,730.299988,,2013-04-21 18:42:00,
2013-04-21 11:52:00,74.0,38.0,30.06,NNE,17,2.0,-999.0,26,0.00,,,-99.99,730.299988,,2013-04-21 18:52:00,
2013-04-21 12:00:00,77.0,38.0,30.05,NNE,33,2.0,-999.0,24,0.00,,,-99.99,844.700012,,2013-04-21 19:00:00,
2013-04-21 12:22:00,77.0,38.0,30.05,NNE,33,2.0,-999.0,24,0.00,,,-99.99,844.700012,,2013-04-21 19:22:00,
2013-04-21 12:32:00,77.0,38.0,30.05,NNE,33,2.0,-999.0,24,0.00,,,-99.99,844.700012,,2013-04-21 19:32:00,
2013-04-21 12:42:00,77.0,38.0,30.05,NNE,33,2.0,-999.0,24,0.00,,,-99.99,844.700012,,2013-04-21 19:42:00,
2013-04-21 12:52:00,77.0,38.0,30.05,NNE,33,2.0,-999.0,24,0.00,,,-99.99,844.700012,,2013-04-21 19:52:00,
2013-04-21 13:00:00,79.0,44.0,30.04,SSW,208,3.0,-999.0,29,0.00,,,-99.99,898.599976,,2013-04-21 20:00:00,
2013-04-21 13:22:00,79.0,44.0,30.04,SSW,208,3.0,-999.0,29,0.00,,,-99.99,898.599976,,2013-04-21 20:22:00,
2013-04-21 13:32:00,79.0,44.0,30.04,SSW,208,3.0,-999.0,29,0.00,,,-99.99,898.599976,,2013-04-21 20:32:00,
2013-04-21 13:42:00,79.0,44.0,30.04,SSW,208,3.0,-999.0,29,0.00,,,-99.99,898.599976,,2013-04-21 20:42:00,
2013-04-21 13:52:00,79.0,44.0,30.04,SSW,208,3.0,-999.0,29,0.00,,,-99.99,898.599976,,2013-04-21 20:52:00,
2013-04-21 14:00:00,78.0,44.0,30.03,WSW,238,4.0,-999.0,30,0.00,,,-99.99,904.299988,,2013-04-21 21:00:00,
2013-04-21 14:22:00,78.0,44.0,30.03,WSW,238,4.0,-999.0,30,0.00,,,-99.99,904.299988,,2013-04-21 21:22:00,
2013-04-21 14:33:00,78.0,44.0,30.03,WSW,238,4.0,-999.0,30,0.00,,,-99.99,904.299988,,2013-04-21 21:33:00,
2013-04-21 14:43:00,78.0,44.0,30.03,WSW,238,4.0,-999.0,30,0.00,,,-99.99,904.299988,,2013-04-21 21:43:00,
2013-04-21 14:53:00,78.0,44.0,30.03,WSW,238,4.0,-999.0,30,0.00,,,-99.99,904.299988,,2013-04-21 21:53:00,
2013-04-21 16:00:00,78.0,37.0,30.02,North,355,2.0,-999.0,23,0.00,,,-99.99,739.099976,,2013-04-21 23:00:00,
2013-04-21 16:22:00,78.0,37.0,30.02,North,355,2.0,-999.0,23,0.00,,,-99.99,739.099976,,2013-04-21 23:22:00,
2013-04-21 16:32:00,78.0,37.0,30.02,North,355,2.0,-999.0,23,0.00,,,-99.99,739.099976,,2013-04-21 23:32:00,
2013-04-21 16:42:00,78.0,37.0,30.02,North,355,2.0,-999.0,23,0.00,,,-99.99,739.099976,,2013-04-21 23:42:00,
2013-04-21 16:52:00,78.0,37.0,30.02,North,355,2.0,-999.0,23,0.00,,,-99.99,739.099976,,2013-04-21 23:52:00,
2013-04-21 17:00:00,78.0,42.0,30.02,NE,52,1.0,-999.0,27,0.00,,,-99.99,575.000000,,2013-04-22 00:00:00,
2013-04-21 17:22:00,78.0,42.0,30.02,NE,52,1.0,-999.0,27,0.00,,,-99.99,575.000000,,2013-04-22 00:22:00,
2013-04-21 17:32:00,78.0,42.0,30.02,NE,52,1.0,-999.0,27,0.00,,,-99.99,575.000000,,2013-04-22 00:32:00,
2013-04-21 17:42:00,78.0,42.0,30.02,NE,52,1.0,-999.0,27,0.00,,,-99.99,575.000000,,2013-04-22 00:42:00,
2013-04-21 17:52:00,78.0,42.0,30.02,NE,52,1.0,-999.0,27,0.00,,,-99.99,575.000000,,2013-04-22 00:52:00,
2013-04-21 19:00:00,70.0,42.0,30.00,NW,326,0.0,-999.0,36,0.00,,,-99.99,140.100006,,2013-04-22 02:00:00,
2013-04-21 19:22:00,70.0,42.0,30.00,NW,326,0.0,-999.0,36,0.00,,,-99.99,140.100006,,2013-04-22 02:22:00,
2013-04-21 19:32:00,70.0,42.0,30.00,NW,326,0.0,-999.0,36,0.00,,,-99.99,140.100006,,2013-04-22 02:32:00,
2013-04-21 19:42:00,70.0,42.0,30.00,NW,326,0.0,-999.0,36,0.00,,,-99.99,140.100006,,2013-04-22 02:42:00,
2013-04-21 19:52:00,70.0,42.0,30.00,NW,326,0.0,-999.0,36,0.00,,,-99.99,140.100006,,2013-04-22 02:52:00,
2013-04-21 20:22:00,62.0,44.0,30.00,NNW,330,0.0,-999.0,50,0.00,,,-99.99,10.200000,,2013-04-22 03:22:00,
2013-04-21 20:33:00,62.0,44.0,30.00,NNW,330,0.0,-999.0,50,0.00,,,-99.99,10.200000,,2013-04-22 03:33:00,
2013-04-21 21:23:00,57.0,42.0,30.00,West,274,0.0,-999.0,56,0.00,,,-99.99,-2.900000,,2013-04-22 04:23:00,
2013-04-21 21:33:00,57.0,42.0,30.00,West,274,0.0,-999.0,56,0.00,,,-99.99,-2.900000,,2013-04-22 04:33:00,
2013-04-21 22:23:00,55.0,43.0,30.01,WSW,242,0.0,-999.0,62,0.00,,,-99.99,-1.500000,,2013-04-22 05:23:00,
2013-04-21 22:33:00,55.0,43.0,30.01,WSW,242,0.0,-999.0,62,0.00,,,-99.99,-1.500000,,2013-04-22 05:33:00,
2013-04-21 22:42:00,55.0,43.0,30.01,WSW,242,0.0,-999.0,62,0.00,,,-99.99,-1.500000,,2013-04-22 05:42:00,
2013-04-21 22:52:00,55.0,43.0,30.01,WSW,242,0.0,-999.0,62,0.00,,,-99.99,-1.500000,,2013-04-22 05:52:00,
2013-04-21 23:21:00,52.0,43.0,30.01,SSE,163,0.0,-999.0,70,0.00,,,-99.99,-1.600000,,2013-04-22 06:21:00,
2013-04-21 23:32:00,52.0,43.0,30.01,SSE,163,0.0,-999.0,70,0.00,,,-99.99,-1.600000,,2013-04-22 06:32:00,